sensor_id;sensor_type;location;lat;lon;timestamp;pressure;altitude;pressure_sealevel;temperature;humidity
56604;BME280;42486;47.478;19.036;2023-07-09T00:43:46;100676.91;;;18.67;77.17
56604;BME280;42486;47.478;19.036;2023-07-09T00:50:08;100669.09;;;18.57;76.50
56604;BME280;42486;47.478;19.036;2023-07-09T00:53:26;100669.91;;;18.58;76.98
56604;BME280;42486;47.478;19.036;2023-07-09T00:56:44;100671.22;;;18.54;77.30
56604;BME280;42486;47.478;19.036;2023-07-09T00:59:59;100673.50;;;18.48;77.87
56604;BME280;42486;47.478;19.036;2023-07-09T01:03:51;100669.66;;;18.43;78.10
56604;BME280;42486;47.478;19.036;2023-07-09T01:07:39;100668.78;;;18.34;77.98
56604;BME280;42486;47.478;19.036;2023-07-09T01:11:25;100669.59;;;18.35;78.41
56604;BME280;42486;47.478;19.036;2023-07-09T01:14:38;100665.56;;;18.22;78.68
56604;BME280;42486;47.478;19.036;2023-07-09T01:17:48;100673.28;;;18.16;79.10
56604;BME280;42486;47.478;19.036;2023-07-09T01:21:17;100669.12;;;18.13;79.57
56604;BME280;42486;47.478;19.036;2023-07-09T01:28:13;100667.97;;;18.16;80.37
56604;BME280;42486;47.478;19.036;2023-07-09T01:31:41;100666.28;;;18.07;81.55
56604;BME280;42486;47.478;19.036;2023-07-09T01:34:52;100667.19;;;17.97;82.12
56604;BME280;42486;47.478;19.036;2023-07-09T01:41:41;100677.63;;;17.99;82.74
56604;BME280;42486;47.478;19.036;2023-07-09T01:45:00;100673.31;;;17.98;82.81
56604;BME280;42486;47.478;19.036;2023-07-09T01:48:12;100679.44;;;17.98;82.71
56604;BME280;42486;47.478;19.036;2023-07-09T01:51:21;100677.63;;;17.99;81.65
56604;BME280;42486;47.478;19.036;2023-07-09T01:54:33;100682.66;;;17.92;81.10
56604;BME280;42486;47.478;19.036;2023-07-09T01:58:16;100675.72;;;17.91;82.33
56604;BME280;42486;47.478;19.036;2023-07-09T02:01:20;100692.03;;;17.87;81.54
56604;BME280;42486;47.478;19.036;2023-07-09T02:04:39;100691.59;;;17.91;81.32
56604;BME280;42486;47.478;19.036;2023-07-09T02:07:57;100689.94;;;17.90;81.49
56604;BME280;42486;47.478;19.036;2023-07-09T02:11:11;100687.00;;;17.93;82.00
56604;BME280;42486;47.478;19.036;2023-07-09T02:14:13;100691.28;;;17.94;81.30
56604;BME280;42486;47.478;19.036;2023-07-09T02:17:38;100699.75;;;17.98;80.34
56604;BME280;42486;47.478;19.036;2023-07-09T02:21:10;100698.09;;;17.97;79.77
56604;BME280;42486;47.478;19.036;2023-07-09T02:24:29;100698.25;;;17.95;79.68
56604;BME280;42486;47.478;19.036;2023-07-09T02:27:35;100703.75;;;18.02;79.74
56604;BME280;42486;47.478;19.036;2023-07-09T02:30:46;100700.41;;;18.00;79.89
56604;BME280;42486;47.478;19.036;2023-07-09T02:34:09;100695.00;;;18.01;80.23
56604;BME280;42486;47.478;19.036;2023-07-09T02:37:28;100703.75;;;18.02;80.26
56604;BME280;42486;47.478;19.036;2023-07-09T02:40:55;100702.91;;;18.01;80.88
56604;BME280;42486;47.478;19.036;2023-07-09T02:44:28;100703.53;;;17.95;81.95
56604;BME280;42486;47.478;19.036;2023-07-09T02:47:51;100698.25;;;17.95;81.97
56604;BME280;42486;47.478;19.036;2023-07-09T02:50:53;100692.88;;;17.87;83.00
56604;BME280;42486;47.478;19.036;2023-07-09T02:54:04;100696.28;;;17.79;84.17
56604;BME280;42486;47.478;19.036;2023-07-09T02:57:24;100696.31;;;17.70;84.85
56604;BME280;42486;47.478;19.036;2023-07-09T03:00:35;100699.41;;;17.65;85.90
56604;BME280;42486;47.478;19.036;2023-07-09T03:03:39;100697.00;;;17.54;86.74
56604;BME280;42486;47.478;19.036;2023-07-09T03:07:01;100702.34;;;17.44;87.89
56604;BME280;42486;47.478;19.036;2023-07-09T03:10:16;100704.38;;;17.32;89.20
56604;BME280;42486;47.478;19.036;2023-07-09T03:13:32;100703.69;;;17.30;90.08
56604;BME280;42486;47.478;19.036;2023-07-09T03:16:48;100708.53;;;17.35;89.94
56604;BME280;42486;47.478;19.036;2023-07-09T03:19:56;100711.06;;;17.27;91.55
56604;BME280;42486;47.478;19.036;2023-07-09T03:23:12;100714.28;;;17.21;93.20
56604;BME280;42486;47.478;19.036;2023-07-09T03:26:17;100721.69;;;17.17;93.58
56604;BME280;42486;47.478;19.036;2023-07-09T03:29:21;100712.34;;;17.23;93.88
56604;BME280;42486;47.478;19.036;2023-07-09T03:32:29;100716.19;;;17.28;93.95
56604;BME280;42486;47.478;19.036;2023-07-09T03:36:01;100714.75;;;17.34;92.89
56604;BME280;42486;47.478;19.036;2023-07-09T03:39:26;100720.00;;;17.44;93.08
56604;BME280;42486;47.478;19.036;2023-07-09T03:42:37;100718.19;;;17.44;93.48
56604;BME280;42486;47.478;19.036;2023-07-09T03:45:43;100717.22;;;17.45;93.25
56604;BME280;42486;47.478;19.036;2023-07-09T03:48:46;100717.06;;;17.47;93.54
56604;BME280;42486;47.478;19.036;2023-07-09T03:51:54;100719.13;;;17.53;92.75
56604;BME280;42486;47.478;19.036;2023-07-09T03:55:18;100714.87;;;17.60;92.02
56604;BME280;42486;47.478;19.036;2023-07-09T03:58:31;100710.59;;;17.59;92.58
56604;BME280;42486;47.478;19.036;2023-07-09T04:01:45;100716.25;;;17.64;92.50
56604;BME280;42486;47.478;19.036;2023-07-09T04:04:53;100715.97;;;17.67;93.15
56604;BME280;42486;47.478;19.036;2023-07-09T04:08:02;100715.97;;;17.67;92.50
56604;BME280;42486;47.478;19.036;2023-07-09T04:11:26;100718.81;;;17.74;92.42
56604;BME280;42486;47.478;19.036;2023-07-09T04:14:34;100726.19;;;17.80;92.08
56604;BME280;42486;47.478;19.036;2023-07-09T04:17:44;100715.63;;;17.98;90.61
56604;BME280;42486;47.478;19.036;2023-07-09T04:20:51;100715.75;;;18.14;88.82
56604;BME280;42486;47.478;19.036;2023-07-09T04:24:16;100723.44;;;18.25;88.10
56604;BME280;42486;47.478;19.036;2023-07-09T04:27:30;100722.72;;;18.41;87.58
56604;BME280;42486;47.478;19.036;2023-07-09T04:30:57;100714.53;;;18.53;87.17
56604;BME280;42486;47.478;19.036;2023-07-09T04:34:10;100724.75;;;18.74;85.33
56604;BME280;42486;47.478;19.036;2023-07-09T04:37:32;100718.87;;;18.88;85.10
56604;BME280;42486;47.478;19.036;2023-07-09T04:40:48;100726.66;;;19.66;81.14
56604;BME280;42486;47.478;19.036;2023-07-09T04:44:00;100732.94;;;20.72;73.78
56604;BME280;42486;47.478;19.036;2023-07-09T04:47:17;100737.38;;;20.87;72.60
56604;BME280;42486;47.478;19.036;2023-07-09T04:50:24;100734.09;;;20.69;73.60
56604;BME280;42486;47.478;19.036;2023-07-09T04:53:41;100734.66;;;20.48;76.05
56604;BME280;42486;47.478;19.036;2023-07-09T04:56:53;100740.94;;;20.39;75.83
56604;BME280;42486;47.478;19.036;2023-07-09T05:00:04;100738.28;;;20.47;75.11
56604;BME280;42486;47.478;19.036;2023-07-09T05:03:23;100735.63;;;20.55;76.50
56604;BME280;42486;47.478;19.036;2023-07-09T05:14:02;100740.38;;;21.94;66.26
56604;BME280;42486;47.478;19.036;2023-07-09T05:17:26;100743.41;;;23.41;58.36
56604;BME280;42486;47.478;19.036;2023-07-09T05:20:32;100740.19;;;23.31;57.33
56604;BME280;42486;47.478;19.036;2023-07-09T05:23:43;100748.47;;;22.92;58.41
56604;BME280;42486;47.478;19.036;2023-07-09T05:26:54;100743.16;;;23.06;60.03
56604;BME280;42486;47.478;19.036;2023-07-09T05:29:59;100747.53;;;23.44;59.24
56604;BME280;42486;47.478;19.036;2023-07-09T05:33:06;100742.37;;;23.79;56.99
56604;BME280;42486;47.478;19.036;2023-07-09T05:36:21;100740.53;;;23.43;58.46
56604;BME280;42486;47.478;19.036;2023-07-09T05:39:28;100751.87;;;23.15;59.73
56604;BME280;42486;47.478;19.036;2023-07-09T05:42:40;100748.41;;;23.00;60.63
56604;BME280;42486;47.478;19.036;2023-07-09T05:45:44;100745.16;;;22.90;63.45
56604;BME280;42486;47.478;19.036;2023-07-09T05:48:49;100742.13;;;22.78;60.95
56604;BME280;42486;47.478;19.036;2023-07-09T05:51:54;100741.69;;;22.74;60.69
56604;BME280;42486;47.478;19.036;2023-07-09T05:55:24;100741.22;;;22.85;61.78
56604;BME280;42486;47.478;19.036;2023-07-09T05:58:34;100750.53;;;23.04;61.60
56604;BME280;42486;47.478;19.036;2023-07-09T06:01:38;100754.56;;;23.15;59.24
56604;BME280;42486;47.478;19.036;2023-07-09T06:04:42;100749.31;;;23.22;59.57
56604;BME280;42486;47.478;19.036;2023-07-09T06:08:03;100752.31;;;23.34;59.67
56604;BME280;42486;47.478;19.036;2023-07-09T06:11:12;100754.72;;;23.43;59.78
56604;BME280;42486;47.478;19.036;2023-07-09T06:14:25;100752.81;;;23.59;59.85
56604;BME280;42486;47.478;19.036;2023-07-09T06:17:32;100751.25;;;23.64;59.50
56604;BME280;42486;47.478;19.036;2023-07-09T06:20:59;100757.62;;;23.85;57.61
56604;BME280;42486;47.478;19.036;2023-07-09T06:24:06;100756.13;;;23.97;58.08
56604;BME280;42486;47.478;19.036;2023-07-09T06:27:11;100756.34;;;24.24;57.63
56604;BME280;42486;47.478;19.036;2023-07-09T06:30:15;100759.63;;;24.75;55.71
56604;BME280;42486;47.478;19.036;2023-07-09T06:33:20;100756.72;;;25.46;52.69
56604;BME280;42486;47.478;19.036;2023-07-09T06:36:23;100762.22;;;26.13;47.65
56604;BME280;42486;47.478;19.036;2023-07-09T06:39:25;100758.06;;;26.90;46.00
56604;BME280;42486;47.478;19.036;2023-07-09T06:42:37;100760.75;;;28.37;42.51
56604;BME280;42486;47.478;19.036;2023-07-09T06:45:53;100769.63;;;28.44;41.71
56604;BME280;42486;47.478;19.036;2023-07-09T06:48:59;100761.19;;;27.39;44.72
56604;BME280;42486;47.478;19.036;2023-07-09T06:52:06;100758.28;;;26.75;46.97
56604;BME280;42486;47.478;19.036;2023-07-09T06:55:11;100760.19;;;26.42;48.83
56604;BME280;42486;47.478;19.036;2023-07-09T06:58:17;100750.28;;;26.29;49.63
56604;BME280;42486;47.478;19.036;2023-07-09T07:01:24;100746.56;;;26.23;50.36
56604;BME280;42486;47.478;19.036;2023-07-09T07:04:27;100751.12;;;26.23;50.85
56604;BME280;42486;47.478;19.036;2023-07-09T07:07:33;100752.56;;;26.25;50.90
56604;BME280;42486;47.478;19.036;2023-07-09T07:10:36;100752.34;;;26.33;51.26
56604;BME280;42486;47.478;19.036;2023-07-09T07:13:43;100753.41;;;26.52;48.03
56604;BME280;42486;47.478;19.036;2023-07-09T07:16:46;100752.94;;;26.69;45.69
56604;BME280;42486;47.478;19.036;2023-07-09T07:19:50;100748.53;;;27.08;44.02
56604;BME280;42486;47.478;19.036;2023-07-09T07:22:53;100756.06;;;27.37;42.29
56604;BME280;42486;47.478;19.036;2023-07-09T07:26:02;100749.88;;;28.07;39.18
56604;BME280;42486;47.478;19.036;2023-07-09T07:29:06;100749.94;;;29.73;36.11
56604;BME280;42486;47.478;19.036;2023-07-09T07:32:08;100761.28;;;32.31;30.28
56604;BME280;42486;47.478;19.036;2023-07-09T07:35:12;100770.13;;;35.45;25.43
56604;BME280;42486;47.478;19.036;2023-07-09T07:38:19;100778.72;;;37.60;23.44
56604;BME280;42486;47.478;19.036;2023-07-09T07:41:23;100787.41;;;38.36;21.30
56604;BME280;42486;47.478;19.036;2023-07-09T07:44:27;100782.47;;;39.34;20.65
56604;BME280;42486;47.478;19.036;2023-07-09T07:47:30;100785.94;;;39.92;19.72
56604;BME280;42486;47.478;19.036;2023-07-09T07:50:39;100784.81;;;40.12;19.99
56604;BME280;42486;47.478;19.036;2023-07-09T07:53:42;100784.75;;;40.58;19.05
56604;BME280;42486;47.478;19.036;2023-07-09T07:56:45;100785.72;;;40.81;17.80
56604;BME280;42486;47.478;19.036;2023-07-09T07:59:52;100784.00;;;40.11;17.71
56604;BME280;42486;47.478;19.036;2023-07-09T08:02:57;100792.38;;;40.61;19.15
56604;BME280;42486;47.478;19.036;2023-07-09T08:06:00;100784.31;;;38.96;19.50
56604;BME280;42486;47.478;19.036;2023-07-09T08:09:07;100776.75;;;36.31;21.71
56604;BME280;42486;47.478;19.036;2023-07-09T08:12:10;100786.56;;;37.72;21.26
56604;BME280;42486;47.478;19.036;2023-07-09T08:15:17;100771.91;;;37.13;21.55
56604;BME280;42486;47.478;19.036;2023-07-09T08:18:21;100790.81;;;38.23;20.59
56604;BME280;42486;47.478;19.036;2023-07-09T08:21:27;100781.97;;;39.27;20.12
56604;BME280;42486;47.478;19.036;2023-07-09T08:24:34;100789.41;;;37.91;19.61
56604;BME280;42486;47.478;19.036;2023-07-09T08:27:40;100789.31;;;38.89;18.98
56604;BME280;42486;47.478;19.036;2023-07-09T08:30:43;100790.50;;;39.02;19.64
56604;BME280;42486;47.478;19.036;2023-07-09T08:33:48;100787.25;;;39.80;19.14
56604;BME280;42486;47.478;19.036;2023-07-09T08:36:51;100784.66;;;38.07;21.72
56604;BME280;42486;47.478;19.036;2023-07-09T08:39:53;100775.63;;;34.87;23.78
56604;BME280;42486;47.478;19.036;2023-07-09T08:43:01;100774.62;;;33.59;26.40
56604;BME280;42486;47.478;19.036;2023-07-09T08:49:16;100762.50;;;31.89;26.22
56604;BME280;42486;47.478;19.036;2023-07-09T08:52:27;100752.31;;;31.63;28.57
56604;BME280;42486;47.478;19.036;2023-07-09T08:55:31;100754.47;;;31.49;28.45
56604;BME280;42486;47.478;19.036;2023-07-09T08:58:42;100750.56;;;31.16;27.34
56604;BME280;42486;47.478;19.036;2023-07-09T09:01:49;100758.87;;;31.26;27.50
56604;BME280;42486;47.478;19.036;2023-07-09T09:04:52;100756.38;;;31.36;28.98
56604;BME280;42486;47.478;19.036;2023-07-09T09:07:56;100758.91;;;31.55;27.95
56604;BME280;42486;47.478;19.036;2023-07-09T09:11:12;100759.22;;;31.30;28.65
56604;BME280;42486;47.478;19.036;2023-07-09T09:17:24;100760.53;;;31.85;28.52
56604;BME280;42486;47.478;19.036;2023-07-09T09:20:32;100758.75;;;31.62;27.75
56604;BME280;42486;47.478;19.036;2023-07-09T09:23:39;100764.03;;;31.40;28.08
56604;BME280;42486;47.478;19.036;2023-07-09T09:26:43;100750.62;;;31.33;29.02
56604;BME280;42486;47.478;19.036;2023-07-09T09:29:52;100755.16;;;31.73;28.96
56604;BME280;42486;47.478;19.036;2023-07-09T09:32:55;100754.84;;;31.86;29.60
56604;BME280;42486;47.478;19.036;2023-07-09T09:36:02;100749.66;;;32.13;28.95
56604;BME280;42486;47.478;19.036;2023-07-09T09:39:08;100755.56;;;32.27;28.15
56604;BME280;42486;47.478;19.036;2023-07-09T09:42:13;100757.56;;;31.41;29.98
56604;BME280;42486;47.478;19.036;2023-07-09T09:45:17;100752.13;;;31.12;29.98
56604;BME280;42486;47.478;19.036;2023-07-09T09:48:30;100759.37;;;31.11;30.06
56604;BME280;42486;47.478;19.036;2023-07-09T09:51:35;100748.22;;;31.20;29.14
56604;BME280;42486;47.478;19.036;2023-07-09T09:54:41;100746.16;;;31.67;30.96
56604;BME280;42486;47.478;19.036;2023-07-09T09:57:48;100752.41;;;30.99;29.83
56604;BME280;42486;47.478;19.036;2023-07-09T10:00:55;100745.47;;;31.31;30.38
56604;BME280;42486;47.478;19.036;2023-07-09T10:03:59;100747.25;;;31.26;29.78
56604;BME280;42486;47.478;19.036;2023-07-09T10:07:05;100749.03;;;31.61;30.46
56604;BME280;42486;47.478;19.036;2023-07-09T10:10:18;100744.91;;;30.89;29.50
56604;BME280;42486;47.478;19.036;2023-07-09T10:13:33;100738.72;;;30.30;31.91
56604;BME280;42486;47.478;19.036;2023-07-09T10:16:41;100736.34;;;30.45;31.79
56604;BME280;42486;47.478;19.036;2023-07-09T10:19:47;100731.63;;;30.76;29.06
56604;BME280;42486;47.478;19.036;2023-07-09T10:22:54;100733.56;;;31.15;29.09
56604;BME280;42486;47.478;19.036;2023-07-09T10:25:59;100736.31;;;31.32;29.22
56604;BME280;42486;47.478;19.036;2023-07-09T10:42:24;100744.16;;;32.59;26.74
56604;BME280;42486;47.478;19.036;2023-07-09T10:45:35;100740.97;;;32.28;26.82
56604;BME280;42486;47.478;19.036;2023-07-09T10:48:52;100733.25;;;32.20;26.48
56604;BME280;42486;47.478;19.036;2023-07-09T10:55:24;100739.47;;;32.54;26.53
56604;BME280;42486;47.478;19.036;2023-07-09T10:58:37;100726.50;;;33.17;26.87
56604;BME280;42486;47.478;19.036;2023-07-09T11:01:43;100729.25;;;33.22;26.77
56604;BME280;42486;47.478;19.036;2023-07-09T11:04:54;100728.03;;;32.13;27.47
56604;BME280;42486;47.478;19.036;2023-07-09T11:08:00;100720.34;;;31.59;30.47
56604;BME280;42486;47.478;19.036;2023-07-09T11:11:04;100720.22;;;31.66;28.04
56604;BME280;42486;47.478;19.036;2023-07-09T11:14:20;100728.06;;;32.52;27.53
56604;BME280;42486;47.478;19.036;2023-07-09T11:17:25;100721.41;;;32.60;26.28
56604;BME280;42486;47.478;19.036;2023-07-09T11:20:33;100718.25;;;31.78;28.89
56604;BME280;42486;47.478;19.036;2023-07-09T11:23:39;100715.75;;;31.14;28.19
56604;BME280;42486;47.478;19.036;2023-07-09T11:26:46;100704.63;;;31.56;29.30
56604;BME280;42486;47.478;19.036;2023-07-09T11:30:03;100708.41;;;31.55;28.35
56604;BME280;42486;47.478;19.036;2023-07-09T11:33:26;100705.25;;;30.78;28.56
56604;BME280;42486;47.478;19.036;2023-07-09T11:36:30;100693.94;;;30.28;29.15
56604;BME280;42486;47.478;19.036;2023-07-09T11:42:48;100711.09;;;31.55;26.80
56604;BME280;42486;47.478;19.036;2023-07-09T11:45:52;100712.78;;;31.90;24.63
56604;BME280;42486;47.478;19.036;2023-07-09T11:48:56;100707.09;;;32.42;25.47
56604;BME280;42486;47.478;19.036;2023-07-09T11:52:02;100712.16;;;33.00;24.68
56604;BME280;42486;47.478;19.036;2023-07-09T11:55:25;100704.25;;;33.42;23.57
56604;BME280;42486;47.478;19.036;2023-07-09T11:58:28;100691.63;;;33.53;24.69
56604;BME280;42486;47.478;19.036;2023-07-09T12:01:48;100701.94;;;33.29;24.59
56604;BME280;42486;47.478;19.036;2023-07-09T12:04:55;100700.69;;;33.37;24.89
56604;BME280;42486;47.478;19.036;2023-07-09T12:07:58;100696.72;;;33.76;24.65
56604;BME280;42486;47.478;19.036;2023-07-09T12:11:01;100690.06;;;33.89;24.45
56604;BME280;42486;47.478;19.036;2023-07-09T12:14:05;100685.31;;;34.07;23.92
56604;BME280;42486;47.478;19.036;2023-07-09T12:17:10;100677.37;;;34.00;24.25
56604;BME280;42486;47.478;19.036;2023-07-09T12:20:14;100687.13;;;34.01;25.08
56604;BME280;42486;47.478;19.036;2023-07-09T12:23:31;100689.16;;;34.11;24.24
56604;BME280;42486;47.478;19.036;2023-07-09T12:26:35;100677.41;;;33.14;24.52
56604;BME280;42486;47.478;19.036;2023-07-09T12:29:37;100663.59;;;33.42;24.58
56604;BME280;42486;47.478;19.036;2023-07-09T12:32:44;100662.62;;;33.81;25.51
56604;BME280;42486;47.478;19.036;2023-07-09T12:35:48;100663.63;;;33.74;24.79
56604;BME280;42486;47.478;19.036;2023-07-09T12:38:52;100661.75;;;33.48;23.91
56604;BME280;42486;47.478;19.036;2023-07-09T12:41:56;100671.19;;;33.13;25.32
56604;BME280;42486;47.478;19.036;2023-07-09T12:45:02;100662.66;;;33.26;25.70
56604;BME280;42486;47.478;19.036;2023-07-09T12:48:04;100656.97;;;33.55;24.71
56604;BME280;42486;47.478;19.036;2023-07-09T12:51:08;100652.56;;;33.22;24.38
56604;BME280;42486;47.478;19.036;2023-07-09T12:54:19;100650.19;;;32.76;26.32
56604;BME280;42486;47.478;19.036;2023-07-09T12:57:22;100647.00;;;32.40;25.96
56604;BME280;42486;47.478;19.036;2023-07-09T13:00:29;100639.19;;;32.61;25.85
56604;BME280;42486;47.478;19.036;2023-07-09T13:03:33;100641.72;;;32.95;26.09
56604;BME280;42486;47.478;19.036;2023-07-09T13:06:36;100642.66;;;33.32;25.24
56604;BME280;42486;47.478;19.036;2023-07-09T13:09:47;100638.66;;;33.40;24.30
56604;BME280;42486;47.478;19.036;2023-07-09T13:12:50;100628.19;;;33.22;24.67
56604;BME280;42486;47.478;19.036;2023-07-09T13:15:57;100634.47;;;33.22;24.62
56604;BME280;42486;47.478;19.036;2023-07-09T13:19:01;100631.94;;;33.48;24.83
56604;BME280;42486;47.478;19.036;2023-07-09T13:22:06;100638.78;;;33.88;24.36
56604;BME280;42486;47.478;19.036;2023-07-09T13:25:10;100632.00;;;33.85;24.76
56604;BME280;42486;47.478;19.036;2023-07-09T13:31:19;100615.28;;;33.02;25.96
56604;BME280;42486;47.478;19.036;2023-07-09T13:34:24;100620.13;;;32.12;27.57
56604;BME280;42486;47.478;19.036;2023-07-09T13:37:26;100616.50;;;32.45;26.42
56604;BME280;42486;47.478;19.036;2023-07-09T13:40:29;100617.63;;;32.93;26.27
56604;BME280;42486;47.478;19.036;2023-07-09T13:43:33;100622.59;;;32.79;25.68
56604;BME280;42486;47.478;19.036;2023-07-09T13:46:36;100621.94;;;32.94;25.98
56604;BME280;42486;47.478;19.036;2023-07-09T13:49:42;100621.00;;;33.05;25.95
56604;BME280;42486;47.478;19.036;2023-07-09T13:52:46;100616.78;;;33.15;25.74
56604;BME280;42486;47.478;19.036;2023-07-09T13:55:49;100618.62;;;33.09;25.79
56604;BME280;42486;47.478;19.036;2023-07-09T13:58:52;100620.53;;;32.86;25.97
56604;BME280;42486;47.478;19.036;2023-07-09T14:01:56;100609.66;;;33.08;26.12
56604;BME280;42486;47.478;19.036;2023-07-09T14:05:00;100608.44;;;33.21;26.38
56604;BME280;42486;47.478;19.036;2023-07-09T14:08:03;100607.00;;;33.41;26.07
56604;BME280;42486;47.478;19.036;2023-07-09T14:11:10;100606.47;;;33.44;25.94
56604;BME280;42486;47.478;19.036;2023-07-09T14:17:23;100609.28;;;33.27;25.21
56604;BME280;42486;47.478;19.036;2023-07-09T14:20:28;100599.34;;;33.05;25.26
56604;BME280;42486;47.478;19.036;2023-07-09T14:23:31;100601.53;;;33.08;25.54
56604;BME280;42486;47.478;19.036;2023-07-09T14:26:34;100595.59;;;33.06;26.83
56604;BME280;42486;47.478;19.036;2023-07-09T14:29:36;100592.31;;;33.04;25.80
56604;BME280;42486;47.478;19.036;2023-07-09T14:32:39;100602.38;;;33.09;26.15
56604;BME280;42486;47.478;19.036;2023-07-09T14:35:45;100595.00;;;33.04;25.34
56604;BME280;42486;47.478;19.036;2023-07-09T14:38:48;100598.28;;;33.06;25.34
56604;BME280;42486;47.478;19.036;2023-07-09T14:41:50;100608.19;;;32.74;25.11
56604;BME280;42486;47.478;19.036;2023-07-09T14:44:53;100597.97;;;33.03;25.33
56604;BME280;42486;47.478;19.036;2023-07-09T14:47:57;100599.44;;;33.16;25.78
56604;BME280;42486;47.478;19.036;2023-07-09T14:50:59;100600.63;;;33.25;25.39
56604;BME280;42486;47.478;19.036;2023-07-09T14:54:04;100593.03;;;33.27;24.95
56604;BME280;42486;47.478;19.036;2023-07-09T14:57:16;100595.88;;;33.10;25.52
56604;BME280;42486;47.478;19.036;2023-07-09T15:00:22;100589.19;;;33.18;24.46
56604;BME280;42486;47.478;19.036;2023-07-09T15:03:25;100587.75;;;33.10;26.10
56604;BME280;42486;47.478;19.036;2023-07-09T15:06:30;100584.75;;;33.06;25.15
56604;BME280;42486;47.478;19.036;2023-07-09T15:09:36;100581.81;;;32.86;25.07
56604;BME280;42486;47.478;19.036;2023-07-09T15:12:39;100585.75;;;32.51;25.45
56604;BME280;42486;47.478;19.036;2023-07-09T15:15:43;100589.03;;;32.53;25.56
56604;BME280;42486;47.478;19.036;2023-07-09T15:18:45;100583.88;;;32.52;25.75
56604;BME280;42486;47.478;19.036;2023-07-09T15:21:48;100585.50;;;32.53;25.56
56604;BME280;42486;47.478;19.036;2023-07-09T15:24:52;100580.16;;;32.14;25.70
56604;BME280;42486;47.478;19.036;2023-07-09T15:27:56;100581.81;;;31.98;26.54
56604;BME280;42486;47.478;19.036;2023-07-09T15:30:59;100581.31;;;32.01;26.29
56604;BME280;42486;47.478;19.036;2023-07-09T15:34:01;100587.59;;;32.07;26.87
56604;BME280;42486;47.478;19.036;2023-07-09T15:37:04;100578.47;;;32.13;27.68
56604;BME280;42486;47.478;19.036;2023-07-09T15:40:20;100575.03;;;31.95;27.20
56604;BME280;42486;47.478;19.036;2023-07-09T15:43:24;100572.66;;;31.82;26.97
56604;BME280;42486;47.478;19.036;2023-07-09T15:46:26;100572.13;;;32.02;27.62
56604;BME280;42486;47.478;19.036;2023-07-09T15:49:29;100572.97;;;32.02;26.64
56604;BME280;42486;47.478;19.036;2023-07-09T15:52:32;100569.44;;;32.02;27.13
56604;BME280;42486;47.478;19.036;2023-07-09T15:55:35;100569.63;;;31.95;26.66
56604;BME280;42486;47.478;19.036;2023-07-09T15:58:41;100570.44;;;31.96;27.15
56604;BME280;42486;47.478;19.036;2023-07-09T16:01:44;100561.25;;;31.80;27.09
56604;BME280;42486;47.478;19.036;2023-07-09T16:04:48;100563.72;;;31.81;27.61
56604;BME280;42486;47.478;19.036;2023-07-09T16:07:54;100566.59;;;31.75;27.02
56604;BME280;42486;47.478;19.036;2023-07-09T16:10:58;100563.81;;;31.70;28.28
56604;BME280;42486;47.478;19.036;2023-07-09T16:14:01;100560.81;;;31.66;27.49
56604;BME280;42486;47.478;19.036;2023-07-09T16:17:09;100556.47;;;31.65;27.74
56604;BME280;42486;47.478;19.036;2023-07-09T16:20:17;100560.62;;;31.56;27.48
56604;BME280;42486;47.478;19.036;2023-07-09T16:23:21;100567.19;;;31.60;27.44
56604;BME280;42486;47.478;19.036;2023-07-09T16:26:27;100569.63;;;31.62;27.92
56604;BME280;42486;47.478;19.036;2023-07-09T16:29:33;100561.28;;;31.46;27.76
56604;BME280;42486;47.478;19.036;2023-07-09T16:32:38;100565.47;;;31.20;28.62
56604;BME280;42486;47.478;19.036;2023-07-09T16:35:43;100558.50;;;31.24;28.63
56604;BME280;42486;47.478;19.036;2023-07-09T16:38:46;100565.69;;;31.19;29.25
56604;BME280;42486;47.478;19.036;2023-07-09T16:41:49;100558.50;;;31.07;29.57
56604;BME280;42486;47.478;19.036;2023-07-09T16:44:52;100560.41;;;30.95;29.16
56604;BME280;42486;47.478;19.036;2023-07-09T16:47:55;100561.50;;;30.94;29.53
56604;BME280;42486;47.478;19.036;2023-07-09T16:50:58;100557.66;;;30.78;29.73
56604;BME280;42486;47.478;19.036;2023-07-09T16:54:01;100556.59;;;30.79;29.79
56604;BME280;42486;47.478;19.036;2023-07-09T16:57:08;100552.75;;;30.75;30.02
56604;BME280;42486;47.478;19.036;2023-07-09T17:00:21;100554.44;;;30.64;31.26
56604;BME280;42486;47.478;19.036;2023-07-09T17:03:24;100553.66;;;30.52;31.88
56604;BME280;42486;47.478;19.036;2023-07-09T17:06:28;100560.03;;;30.34;31.42
56604;BME280;42486;47.478;19.036;2023-07-09T17:09:32;100555.28;;;30.24;31.64
56604;BME280;42486;47.478;19.036;2023-07-09T17:12:35;100556.81;;;30.09;31.54
56604;BME280;42486;47.478;19.036;2023-07-09T17:15:40;100560.31;;;30.09;32.00
56604;BME280;42486;47.478;19.036;2023-07-09T17:18:44;100552.22;;;29.97;32.12
56604;BME280;42486;47.478;19.036;2023-07-09T17:21:47;100552.84;;;29.88;32.67
56604;BME280;42486;47.478;19.036;2023-07-09T17:24:51;100547.22;;;29.77;33.17
56604;BME280;42486;47.478;19.036;2023-07-09T17:27:55;100547.25;;;29.66;33.05
56604;BME280;42486;47.478;19.036;2023-07-09T17:30:59;100544.28;;;29.55;32.94
56604;BME280;42486;47.478;19.036;2023-07-09T17:34:02;100537.84;;;29.45;33.54
56604;BME280;42486;47.478;19.036;2023-07-09T17:37:15;100547.88;;;29.37;33.55
56604;BME280;42486;47.478;19.036;2023-07-09T17:40:22;100551.59;;;29.25;34.83
56604;BME280;42486;47.478;19.036;2023-07-09T17:43:45;100540.72;;;29.08;35.05
56604;BME280;42486;47.478;19.036;2023-07-09T17:46:49;100537.72;;;28.97;34.83